Impacts TAF Board
For situational awareness. Not to be used for flight planning purposes.
IDs:

KFKL - Franklin/Lamberton F, PA, US

Issued at 2320 UTC 01 Feb 2023
Updated at 2322 UTC 01 Feb 2023
Potential Impact None Slight Moderate High
Time2256Z 02/00Z 02/01Z 02/02Z 02/03Z 02/04Z 02/05Z 02/06Z 02/07Z 02/08Z 02/09Z 02/10Z 02/11Z 02/12Z>>
Type OBS PRVL PRVL PRVL PRVL PRVL PRVL PRVL PRVL PRVL PRVL PRVL PRVL PRVL
VIS 10 >6 >6 >6 >6 >6 >6 >6 >6 >6 >6 >6 >6 >6
CIG -- -- -- -- -- -- -- -- -- -- -- -- -- --
Cover CLR SKC SKC SKC SKC SKC SKC SKC SKC SKC SKC SKC SKC SKC
FltCat VFR VFR VFR VFR VFR VFR VFR VFR VFR VFR VFR VFR VFR VFR
WX -- -- -- -- -- -- -- -- -- -- -- -- -- --
WDir VRB 200 200 200 200 200 200 200 200 200 200 200 200 200
WSpd 0 5 5 5 5 5 5 5 5 5 5 5 5 5
WGst -- -- -- -- -- -- -- -- -- -- -- -- -- --
WSHgt -- -- -- -- -- -- -- -- -- -- -- -- -- --
WSDir -- -- -- -- -- -- -- -- -- -- -- -- -- --
WSSpd -- -- -- -- -- -- -- -- -- -- -- -- -- --

NOTE: LAMP data beyond the time of the TAF data is denoted as LAMP in Type and colored magenta.

Raw TAF
KFKL 012320Z 0200/0224 20005KT P6SM SKC
  FM021700 21012G22KT P6SM SKC


Raw METAR
KFKL 012256Z AUTO 00000KT 10SM CLR M07/M13 A3023 RMK AO2 SLP270 T10721133 FZRANO
KFKL 012156Z AUTO 25004KT 10SM CLR M04/M12 A3024 RMK AO2 SLP268 T10391122 FZRANO
KFKL 012056Z AUTO 27006KT 10SM CLR M03/M12 A3024 RMK AO2 SLP269 T10281117 56011 FZRANO

METAR Board
Radar Display
Forecast Discussion

For situational awareness. Not to be used for flight planning purposes.